createdAt,value
2022-09-29T00:00:39.124Z,10.65
2022-09-29T00:03:06.596Z,10.77
2022-09-29T00:05:33.622Z,10.81
2022-09-29T00:08:00.540Z,10.73
2022-09-29T00:10:27.179Z,10.70
2022-09-29T00:12:53.937Z,10.40
2022-09-29T00:15:20.505Z,10.44
2022-09-29T00:18:09.676Z,10.36
2022-09-29T00:20:34.679Z,10.64
2022-09-29T00:23:01.452Z,10.46
2022-09-29T00:25:29.258Z,10.53
2022-09-29T00:27:55.880Z,10.95
2022-09-29T00:30:22.561Z,10.73
2022-09-29T00:32:49.202Z,10.57
2022-09-29T00:35:17.893Z,10.58
2022-09-29T00:37:45.002Z,10.55
2022-09-29T00:40:12.061Z,10.54
2022-09-29T00:42:39.015Z,10.48
2022-09-29T00:45:21.498Z,10.52
2022-09-29T00:47:56.742Z,10.44
2022-09-29T00:50:32.840Z,10.47
2022-09-29T00:53:04.090Z,10.21
2022-09-29T00:55:37.690Z,10.14
2022-09-29T00:58:27.470Z,10.13
2022-09-29T01:00:55.232Z,10.02
2022-09-29T01:03:26.508Z,10.46
2022-09-29T01:06:12.782Z,10.33
2022-09-29T01:08:52.750Z,10.19
2022-09-29T01:11:21.844Z,10.05
2022-09-29T01:13:49.498Z,9.86
2022-09-29T01:16:16.291Z,10.05
2022-09-29T01:18:44.513Z,9.95
2022-09-29T01:21:47.003Z,9.87
2022-09-29T01:24:42.719Z,9.77
2022-09-29T01:27:31.060Z,9.67
2022-09-29T01:30:03.910Z,9.70
2022-09-29T01:33:00.353Z,9.54
2022-09-29T01:35:46.430Z,9.65
2022-09-29T01:38:32.631Z,9.57
2022-09-29T01:41:20.608Z,9.86
2022-09-29T01:44:00.099Z,9.76
2022-09-29T01:46:31.940Z,9.77
2022-09-29T01:49:00.736Z,9.65
2022-09-29T01:51:44.071Z,10.10
2022-09-29T01:54:25.318Z,10.23
2022-09-29T01:57:08.942Z,10.03
2022-09-29T01:59:54.032Z,9.70
2022-09-29T02:02:29.750Z,9.61
2022-09-29T02:05:01.991Z,9.66
2022-09-29T02:07:37.174Z,9.76
2022-09-29T02:10:26.908Z,9.94
2022-09-29T02:12:54.998Z,9.85
2022-09-29T02:15:26.912Z,10.15
2022-09-29T02:17:55.557Z,9.87
2022-09-29T02:20:22.568Z,9.88
2022-09-29T02:22:49.377Z,9.92
2022-09-29T02:25:19.134Z,10.01
2022-09-29T02:27:48.169Z,9.90
2022-09-29T02:30:14.881Z,9.89
2022-09-29T02:32:41.585Z,10.12
2022-09-29T02:35:11.739Z,10.33
2022-09-29T02:37:47.681Z,10.00
2022-09-29T02:40:36.666Z,10.21
2022-09-29T02:43:28.297Z,10.07
2022-09-29T02:46:30.430Z,10.36
2022-09-29T02:49:43.949Z,10.24
2022-09-29T02:52:26.373Z,9.91
2022-09-29T02:55:07.557Z,9.90
2022-09-29T02:57:45.600Z,9.78
2022-09-29T03:00:15.529Z,10.32
2022-09-29T03:02:44.912Z,10.25
2022-09-29T03:05:20.190Z,9.95
2022-09-29T03:07:47.086Z,9.76
2022-09-29T03:10:15.704Z,9.80
2022-09-29T03:12:42.449Z,9.90
2022-09-29T03:15:11.792Z,9.89
2022-09-29T03:17:39.771Z,9.94
2022-09-29T03:20:07.442Z,10.05
2022-09-29T03:22:34.438Z,9.97
2022-09-29T03:25:01.480Z,10.06
2022-09-29T03:27:28.177Z,10.08
2022-09-29T03:29:54.768Z,10.17
2022-09-29T03:32:21.411Z,9.98
2022-09-29T03:34:48.074Z,9.99
2022-09-29T03:37:14.894Z,10.14
2022-09-29T03:39:41.481Z,10.14
2022-09-29T03:42:08.166Z,10.35
2022-09-29T03:44:34.855Z,10.08
2022-09-29T03:47:01.481Z,10.05
2022-09-29T03:49:28.231Z,10.22
2022-09-29T03:51:54.894Z,10.02
2022-09-29T03:54:21.645Z,9.94
2022-09-29T03:56:48.311Z,10.24
2022-09-29T03:59:15.699Z,9.98
2022-09-29T04:01:42.456Z,10.05
2022-09-29T04:04:09.694Z,10.10
2022-09-29T04:06:36.668Z,9.89
2022-09-29T04:09:03.834Z,9.85
2022-09-29T04:11:30.751Z,9.91
2022-09-29T04:13:57.517Z,9.79
2022-09-29T04:16:24.251Z,9.96
2022-09-29T04:18:50.972Z,10.06
2022-09-29T04:21:17.730Z,9.81
2022-09-29T04:23:44.427Z,9.74
2022-09-29T04:26:11.110Z,9.76
2022-09-29T04:28:38.566Z,9.77
2022-09-29T04:31:05.841Z,9.77
2022-09-29T04:33:32.541Z,9.97
2022-09-29T04:36:00.196Z,9.81
2022-09-29T04:38:27.390Z,9.79
2022-09-29T04:40:54.223Z,9.72
2022-09-29T04:43:21.010Z,9.89
2022-09-29T04:45:47.737Z,9.76
2022-09-29T04:48:14.809Z,9.78
2022-09-29T04:50:42.081Z,9.96
2022-09-29T04:53:10.836Z,10.16
2022-09-29T04:55:38.475Z,9.92
2022-09-29T04:58:05.465Z,9.75
2022-09-29T05:00:32.757Z,9.75
2022-09-29T05:03:00.838Z,9.65
2022-09-29T05:05:27.966Z,9.58
2022-09-29T05:07:54.736Z,9.33
2022-09-29T05:10:21.691Z,9.41
2022-09-29T05:12:50.228Z,9.36
2022-09-29T05:15:21.050Z,9.59
2022-09-29T05:17:51.521Z,9.88
2022-09-29T05:20:18.182Z,9.53
2022-09-29T05:22:44.861Z,9.51
2022-09-29T05:25:11.588Z,9.70
2022-09-29T05:27:38.625Z,9.62
2022-09-29T05:30:06.067Z,9.65
2022-09-29T05:32:32.741Z,9.53
2022-09-29T05:34:59.799Z,10.12
2022-09-29T05:37:26.494Z,9.85
2022-09-29T05:39:53.152Z,9.70
2022-09-29T05:42:20.448Z,9.58
2022-09-29T05:44:47.869Z,9.78
2022-09-29T05:47:14.479Z,9.66
2022-09-29T05:49:41.732Z,9.75
2022-09-29T05:52:08.596Z,9.72
2022-09-29T05:54:35.421Z,9.76
2022-09-29T05:57:02.093Z,9.71
2022-09-29T05:59:28.814Z,9.73
2022-09-29T06:01:55.544Z,9.84
2022-09-29T06:04:22.192Z,9.86
2022-09-29T06:06:48.862Z,10.20
2022-09-29T06:09:15.955Z,10.03
2022-09-29T06:11:42.597Z,9.83
2022-09-29T06:14:09.328Z,9.76
2022-09-29T06:16:36.582Z,9.74
2022-09-29T06:19:04.147Z,9.91
2022-09-29T06:21:32.147Z,10.04
2022-09-29T06:23:59.110Z,9.88
2022-09-29T06:26:27.164Z,9.86
2022-09-29T06:28:54.938Z,9.80
2022-09-29T06:31:25.011Z,10.04
2022-09-29T06:33:51.904Z,10.07
2022-09-29T06:36:46.186Z,10.45
2022-09-29T06:39:14.685Z,10.35
2022-09-29T06:41:43.279Z,10.28
2022-09-29T06:44:10.311Z,9.99
2022-09-29T06:46:37.183Z,9.93
2022-09-29T06:49:03.849Z,10.00
2022-09-29T06:51:41.941Z,10.15
2022-09-29T06:54:17.959Z,10.24
2022-09-29T06:56:51.678Z,10.23
2022-09-29T06:59:18.644Z,10.36
2022-09-29T07:01:49.532Z,10.30
2022-09-29T07:04:16.278Z,10.35
2022-09-29T07:06:42.929Z,10.61
2022-09-29T07:09:15.668Z,10.73
2022-09-29T07:11:47.158Z,10.66
2022-09-29T07:14:18.896Z,10.98
2022-09-29T07:16:48.336Z,10.68
2022-09-29T07:19:18.034Z,10.47
2022-09-29T07:21:45.740Z,10.44
2022-09-29T07:24:12.936Z,10.40
2022-09-29T07:26:39.647Z,10.68
2022-09-29T07:29:06.322Z,10.76
2022-09-29T07:31:44.421Z,10.82
2022-09-29T07:34:11.883Z,10.89
2022-09-29T07:36:39.048Z,10.91
2022-09-29T07:39:05.655Z,11.24
2022-09-29T07:41:32.257Z,10.85
2022-09-29T07:43:58.956Z,11.09
2022-09-29T07:46:26.257Z,10.95
2022-09-29T07:48:52.909Z,10.82
2022-09-29T07:51:20.796Z,10.77
2022-09-29T07:53:47.836Z,11.08
2022-09-29T07:56:18.513Z,11.08
2022-09-29T07:58:47.136Z,10.77
2022-09-29T08:01:16.065Z,10.87
2022-09-29T08:03:54.334Z,10.93
2022-09-29T08:06:22.818Z,11.02
2022-09-29T08:08:59.973Z,10.88
2022-09-29T08:11:32.087Z,10.80
2022-09-29T08:14:01.279Z,10.94
2022-09-29T08:16:28.806Z,10.94
2022-09-29T08:18:55.637Z,10.87
2022-09-29T08:21:22.605Z,11.08
2022-09-29T08:23:49.264Z,11.04
2022-09-29T08:26:20.008Z,10.78
2022-09-29T08:29:00.284Z,10.72
2022-09-29T08:31:31.037Z,10.77
2022-09-29T08:33:58.886Z,10.85
2022-09-29T08:36:26.346Z,10.99
2022-09-29T08:38:54.801Z,11.34
2022-09-29T08:41:52.788Z,11.26
2022-09-29T08:44:44.874Z,11.27
2022-09-29T08:47:43.299Z,11.38
2022-09-29T08:50:53.676Z,11.41
2022-09-29T08:53:28.075Z,11.13
2022-09-29T08:55:59.999Z,11.24
2022-09-29T08:58:27.073Z,11.25
2022-09-29T09:01:00.452Z,11.31
2022-09-29T09:03:31.511Z,11.53
2022-09-29T09:06:11.170Z,11.53
2022-09-29T09:08:44.120Z,11.62
2022-09-29T09:11:41.885Z,11.55
2022-09-29T09:14:08.524Z,11.66
2022-09-29T09:16:43.035Z,11.58
2022-09-29T09:19:22.146Z,11.87
2022-09-29T09:22:16.216Z,11.98
2022-09-29T09:25:15.191Z,11.82
2022-09-29T09:27:45.901Z,11.85
2022-09-29T09:30:16.474Z,11.73
2022-09-29T09:32:52.695Z,11.78
2022-09-29T09:35:37.891Z,11.87
2022-09-29T09:38:16.668Z,11.82
2022-09-29T09:40:47.923Z,12.06
2022-09-29T09:43:19.841Z,11.92
2022-09-29T09:46:14.669Z,12.34
2022-09-29T09:49:03.337Z,12.41
2022-09-29T09:54:24.087Z,12.66
2022-09-29T09:57:15.191Z,12.77
2022-09-29T10:00:21.536Z,13.10
2022-09-29T10:02:53.015Z,13.26
2022-09-29T10:05:24.425Z,13.23
2022-09-29T10:07:51.856Z,13.36
2022-09-29T10:10:29.670Z,13.43
2022-09-29T10:13:10.477Z,13.08
2022-09-29T10:15:56.297Z,13.35
2022-09-29T10:18:25.559Z,13.56
2022-09-29T10:20:52.282Z,13.67
2022-09-29T10:23:39.187Z,13.91
2022-09-29T10:26:15.245Z,14.20
2022-09-29T10:28:47.517Z,14.40
2022-09-29T10:31:26.748Z,14.40
2022-09-29T10:33:58.013Z,14.23
2022-09-29T10:36:31.170Z,14.24
2022-09-29T10:39:00.877Z,14.41
2022-09-29T10:41:30.183Z,14.50
2022-09-29T10:43:56.848Z,14.83
2022-09-29T10:46:32.801Z,14.98
2022-09-29T10:49:18.177Z,15.01
2022-09-29T10:51:59.451Z,14.98
2022-09-29T10:54:29.300Z,15.22
2022-09-29T10:56:58.666Z,15.35
2022-09-29T10:59:26.169Z,15.24
2022-09-29T11:01:58.623Z,14.74
2022-09-29T11:04:32.604Z,14.43
2022-09-29T11:07:10.235Z,14.43
2022-09-29T11:09:42.302Z,14.32
2022-09-29T11:12:27.949Z,14.16
2022-09-29T11:14:55.130Z,14.18
2022-09-29T11:17:50.067Z,14.15
2022-09-29T11:20:18.175Z,14.17
2022-09-29T11:22:50.903Z,14.25
2022-09-29T11:25:26.309Z,14.35
2022-09-29T11:28:17.977Z,14.65
2022-09-29T11:31:20.335Z,14.36
2022-09-29T11:34:11.459Z,14.19
2022-09-29T11:37:02.797Z,14.05
2022-09-29T11:40:01.468Z,13.87
2022-09-29T11:42:41.440Z,13.91
2022-09-29T11:45:15.260Z,14.06
2022-09-29T11:47:45.004Z,14.00
2022-09-29T11:50:30.603Z,13.92
2022-09-29T11:53:20.640Z,14.03
2022-09-29T11:56:09.715Z,14.34
2022-09-29T11:59:05.078Z,14.48
2022-09-29T12:02:02.724Z,14.28
2022-09-29T12:04:50.332Z,14.09
2022-09-29T12:07:16.879Z,14.11
2022-09-29T12:09:43.522Z,14.39
2022-09-29T12:12:23.762Z,14.40
2022-09-29T12:15:00.764Z,14.60
2022-09-29T12:17:31.181Z,14.59
2022-09-29T12:20:06.981Z,14.67
2022-09-29T12:22:36.873Z,14.31
2022-09-29T12:25:04.448Z,14.23
2022-09-29T12:27:37.613Z,14.38
2022-09-29T12:30:15.830Z,14.62
2022-09-29T12:32:52.854Z,14.52
2022-09-29T12:35:42.781Z,14.73
2022-09-29T12:38:20.160Z,14.66
2022-09-29T12:41:16.272Z,14.79
2022-09-29T12:44:24.755Z,14.68
2022-09-29T12:47:03.117Z,14.55
2022-09-29T12:50:10.861Z,14.57
2022-09-29T12:52:58.419Z,14.53
2022-09-29T12:55:37.573Z,14.65
2022-09-29T12:58:11.412Z,14.80
2022-09-29T13:00:43.521Z,14.82
2022-09-29T13:03:42.302Z,14.74
2022-09-29T13:06:43.364Z,14.83
2022-09-29T13:09:42.742Z,14.71
2022-09-29T13:12:25.012Z,14.88
2022-09-29T13:15:46.168Z,14.95
2022-09-29T13:18:35.941Z,15.03
2022-09-29T13:21:36.065Z,15.00
2022-09-29T13:24:17.726Z,14.82
2022-09-29T13:27:18.547Z,14.92
2022-09-29T13:29:54.509Z,14.80
2022-09-29T13:32:21.618Z,14.70
2022-09-29T13:34:54.841Z,14.67
2022-09-29T13:37:24.835Z,14.63
2022-09-29T13:39:57.903Z,14.62
2022-09-29T13:42:37.355Z,14.65
2022-09-29T13:45:26.842Z,14.58
2022-09-29T13:48:01.788Z,14.63
2022-09-29T13:50:49.594Z,14.46
2022-09-29T13:53:19.301Z,14.48
2022-09-29T13:55:55.064Z,14.57
2022-09-29T13:58:30.313Z,14.84
2022-09-29T14:01:00.894Z,14.69
2022-09-29T14:03:34.808Z,14.61
2022-09-29T14:06:39.841Z,14.44
2022-09-29T14:09:18.260Z,14.41
2022-09-29T14:11:51.064Z,14.37
2022-09-29T14:14:26.765Z,14.35
2022-09-29T14:17:01.574Z,14.37
2022-09-29T14:19:37.885Z,14.40
2022-09-29T14:22:25.642Z,14.67
2022-09-29T14:25:15.771Z,14.50
2022-09-29T14:27:46.739Z,14.40
2022-09-29T14:30:35.852Z,14.50
2022-09-29T14:33:11.567Z,14.79
2022-09-29T14:35:43.471Z,14.59
2022-09-29T14:38:22.392Z,14.33
2022-09-29T14:41:03.000Z,14.37
2022-09-29T14:43:44.743Z,14.70
2022-09-29T14:46:45.751Z,14.54
2022-09-29T14:50:04.701Z,14.62
2022-09-29T14:52:50.107Z,14.49
2022-09-29T14:55:23.709Z,14.33
2022-09-29T14:58:17.791Z,14.68
2022-09-29T15:01:02.702Z,14.54
2022-09-29T15:03:43.272Z,14.46
2022-09-29T15:06:17.165Z,14.53
2022-09-29T15:08:56.649Z,14.65
2022-09-29T15:11:38.091Z,14.68
2022-09-29T15:14:27.590Z,15.01
2022-09-29T15:17:31.544Z,14.94
2022-09-29T15:20:08.533Z,14.77
2022-09-29T15:23:02.865Z,14.75
2022-09-29T15:25:31.758Z,14.60
2022-09-29T15:28:22.511Z,14.58
2022-09-29T15:30:53.222Z,14.60
2022-09-29T15:33:21.471Z,14.66
2022-09-29T15:36:02.876Z,14.43
2022-09-29T15:38:37.114Z,14.30
2022-09-29T15:41:16.554Z,14.36
2022-09-29T15:43:54.143Z,14.27
2022-09-29T15:46:35.112Z,14.33
2022-09-29T15:49:21.424Z,14.40
2022-09-29T15:51:58.375Z,14.55
2022-09-29T15:54:40.442Z,14.62
2022-09-29T15:57:26.504Z,14.48
2022-09-29T15:59:55.383Z,14.41
2022-09-29T16:02:42.093Z,14.38
2022-09-29T16:05:15.565Z,14.40
2022-09-29T16:07:50.852Z,14.22
2022-09-29T16:10:21.179Z,14.23
2022-09-29T16:13:00.715Z,14.25
2022-09-29T16:15:27.526Z,14.19
2022-09-29T16:17:54.583Z,14.22
2022-09-29T16:20:28.281Z,14.26
2022-09-29T16:22:55.894Z,14.14
2022-09-29T16:25:26.988Z,14.22
2022-09-29T16:27:59.013Z,13.97
2022-09-29T16:30:27.480Z,14.02
2022-09-29T16:33:13.699Z,14.35
2022-09-29T16:36:02.237Z,14.27
2022-09-29T16:38:35.450Z,14.43
2022-09-29T16:41:10.604Z,14.29
2022-09-29T16:43:38.012Z,14.12
2022-09-29T16:46:07.303Z,14.17
2022-09-29T16:48:41.239Z,13.96
2022-09-29T16:54:05.364Z,13.92
2022-09-29T16:56:37.095Z,13.45
2022-09-29T16:59:11.341Z,13.42
2022-09-29T17:01:41.599Z,13.36
2022-09-29T17:04:09.790Z,13.07
2022-09-29T17:06:37.256Z,13.07
2022-09-29T17:09:05.438Z,13.01
2022-09-29T17:11:32.342Z,12.99
2022-09-29T17:13:59.115Z,13.40
2022-09-29T17:16:26.448Z,13.28
2022-09-29T17:18:53.945Z,13.26
2022-09-29T17:21:20.716Z,13.07
2022-09-29T17:23:47.449Z,13.05
2022-09-29T17:26:45.076Z,13.07
2022-09-29T17:29:11.920Z,12.98
2022-09-29T17:31:39.006Z,12.92
2022-09-29T17:34:07.875Z,12.96
2022-09-29T17:36:36.949Z,12.90
2022-09-29T17:39:03.841Z,13.17
2022-09-29T17:41:31.982Z,13.06
2022-09-29T17:43:58.667Z,12.99
2022-09-29T17:46:25.416Z,13.02
2022-09-29T17:48:52.245Z,12.97
2022-09-29T17:51:18.971Z,12.88
2022-09-29T17:53:47.033Z,12.85
2022-09-29T17:56:25.973Z,12.85
2022-09-29T17:58:54.158Z,12.87
2022-09-29T18:01:23.712Z,12.89
2022-09-29T18:03:51.821Z,12.84
2022-09-29T18:06:21.558Z,12.88
2022-09-29T18:08:53.776Z,12.86
2022-09-29T18:11:23.219Z,13.20
2022-09-29T18:13:50.262Z,13.26
2022-09-29T18:16:20.443Z,13.02
2022-09-29T18:18:48.324Z,12.95
2022-09-29T18:21:18.722Z,12.99
2022-09-29T18:23:46.397Z,13.04
2022-09-29T18:26:14.645Z,13.18
2022-09-29T18:28:44.044Z,13.16
2022-09-29T18:31:25.925Z,13.25
2022-09-29T18:33:53.334Z,13.35
2022-09-29T18:36:20.694Z,13.35
2022-09-29T18:38:47.497Z,13.59
2022-09-29T18:41:18.365Z,13.69
2022-09-29T18:43:46.101Z,13.40
2022-09-29T18:46:14.385Z,13.16
2022-09-29T18:48:41.806Z,13.17
2022-09-29T18:51:13.421Z,13.29
2022-09-29T18:53:41.898Z,13.56
2022-09-29T18:56:19.037Z,13.53
2022-09-29T18:58:45.723Z,13.18
2022-09-29T19:01:20.807Z,13.00
2022-09-29T19:03:48.185Z,13.19
2022-09-29T19:06:16.003Z,13.45
2022-09-29T19:08:44.363Z,13.40
2022-09-29T19:11:18.246Z,13.33
2022-09-29T19:13:44.874Z,13.25
2022-09-29T19:16:11.578Z,13.17
2022-09-29T19:18:38.222Z,12.95
2022-09-29T19:21:10.217Z,12.94
2022-09-29T19:23:37.753Z,12.74
2022-09-29T19:26:19.206Z,12.93
2022-09-29T19:28:48.041Z,13.02
2022-09-29T19:31:19.294Z,12.82
2022-09-29T19:33:47.295Z,12.90
2022-09-29T19:36:17.464Z,12.57
2022-09-29T19:38:44.694Z,12.65
2022-09-29T19:41:17.432Z,12.65
2022-09-29T19:43:45.584Z,12.58
2022-09-29T19:46:12.833Z,12.55
2022-09-29T19:48:40.232Z,12.61
2022-09-29T19:51:25.425Z,12.66
2022-09-29T19:54:10.573Z,12.83
2022-09-29T19:56:42.984Z,12.75
2022-09-29T19:59:13.827Z,12.78
2022-09-29T20:01:42.135Z,12.77
2022-09-29T20:04:08.990Z,12.72
2022-09-29T20:06:36.056Z,12.82
2022-09-29T20:09:05.254Z,12.85
2022-09-29T20:11:33.681Z,12.90
2022-09-29T20:14:05.997Z,12.92
2022-09-29T20:16:36.579Z,12.83
2022-09-29T20:19:05.704Z,12.78
2022-09-29T20:21:32.963Z,12.77
2022-09-29T20:24:01.059Z,12.67
2022-09-29T20:26:28.624Z,12.65
2022-09-29T20:28:55.382Z,12.74
2022-09-29T20:31:25.977Z,12.73
2022-09-29T20:33:53.324Z,12.81
2022-09-29T20:36:19.999Z,12.73
2022-09-29T20:38:47.445Z,12.68
2022-09-29T20:41:15.558Z,12.69
2022-09-29T20:43:46.555Z,12.55
2022-09-29T20:46:14.016Z,12.59
2022-09-29T20:48:41.811Z,12.46
2022-09-29T20:51:16.005Z,12.46
2022-09-29T20:53:44.880Z,12.55
2022-09-29T20:56:16.907Z,12.48
2022-09-29T20:58:45.538Z,12.35
2022-09-29T21:01:12.677Z,12.40
2022-09-29T21:03:40.099Z,12.45
2022-09-29T21:06:07.341Z,12.39
2022-09-29T21:08:34.269Z,12.35
2022-09-29T21:11:02.895Z,12.32
2022-09-29T21:13:30.559Z,12.41
2022-09-29T21:15:57.805Z,12.49
2022-09-29T21:18:25.755Z,12.40
2022-09-29T21:20:57.257Z,12.35
2022-09-29T21:23:26.562Z,12.38
2022-09-29T21:26:14.257Z,12.37
2022-09-29T21:28:44.984Z,12.25
2022-09-29T21:31:16.981Z,12.39
2022-09-29T21:33:49.861Z,12.30
2022-09-29T21:36:17.465Z,12.15
2022-09-29T21:38:45.159Z,12.14
2022-09-29T21:41:20.985Z,12.33
2022-09-29T21:43:49.774Z,12.35
2022-09-29T21:46:19.032Z,12.37
2022-09-29T21:48:50.606Z,12.43
2022-09-29T21:51:24.067Z,12.35
2022-09-29T21:53:53.108Z,12.33
2022-09-29T21:56:22.668Z,12.33
2022-09-29T21:58:51.615Z,12.32
2022-09-29T22:01:19.275Z,12.31
2022-09-29T22:03:48.908Z,12.27
2022-09-29T22:06:17.214Z,12.33
2022-09-29T22:08:46.607Z,12.33
2022-09-29T22:11:15.601Z,12.33
2022-09-29T22:13:50.174Z,12.38
2022-09-29T22:16:18.976Z,12.35
2022-09-29T22:18:52.581Z,12.34
2022-09-29T22:21:28.134Z,12.33
2022-09-29T22:23:56.626Z,12.12
2022-09-29T22:26:24.412Z,12.22
2022-09-29T22:28:54.376Z,12.13
2022-09-29T22:31:21.144Z,12.21
2022-09-29T22:33:47.904Z,12.18
2022-09-29T22:36:14.636Z,12.26
2022-09-29T22:38:45.469Z,12.17
2022-09-29T22:41:16.223Z,12.24
2022-09-29T22:43:43.162Z,12.17
2022-09-29T22:46:10.916Z,12.13
2022-09-29T22:48:39.085Z,12.09
2022-09-29T22:51:06.469Z,12.11
2022-09-29T22:53:33.394Z,12.13
2022-09-29T22:56:07.241Z,12.27
2022-09-29T22:58:34.125Z,12.34
2022-09-29T23:01:03.641Z,12.34
2022-09-29T23:03:30.450Z,12.32
2022-09-29T23:05:58.809Z,12.17
2022-09-29T23:08:26.540Z,12.04
2022-09-29T23:10:55.900Z,12.11
2022-09-29T23:13:23.606Z,11.99
2022-09-29T23:15:50.408Z,11.88
2022-09-29T23:18:20.471Z,11.85
2022-09-29T23:20:48.503Z,11.94
2022-09-29T23:23:15.294Z,12.03
2022-09-29T23:25:48.246Z,12.18
2022-09-29T23:28:15.060Z,12.29
2022-09-29T23:30:41.635Z,12.27
2022-09-29T23:33:09.002Z,12.16
2022-09-29T23:35:35.644Z,12.10
2022-09-29T23:38:20.864Z,12.22
2022-09-29T23:40:47.873Z,12.30
2022-09-29T23:43:14.600Z,12.34
2022-09-29T23:45:41.216Z,12.28
2022-09-29T23:48:07.925Z,12.25
2022-09-29T23:50:34.666Z,12.03
2022-09-29T23:53:01.380Z,11.85
2022-09-29T23:55:28.030Z,11.91
2022-09-29T23:57:54.962Z,12.02
